Time;durP1;ratioP1;P1;durP2;ratioP2;P2;SDS_P1;SDS_P2;PMS_P1;PMS_P2;Temp;Humidity;BMP_temperature;BMP_pressure;BME280_temperature;BME280_humidity;BME280_pressure;Samples;Min_cycle;Max_cycle;Signal;HPM_P1;HPM_P2
2023/10/12 00:00:25;;;;;;;;;6.00;5.80;;;;;14.22;41.92;99918.69;5108839;28;8890;-67
2023/10/12 00:03:16;;;;;;;;;10.80;8.40;;;;;14.20;41.69;99907.28;5109986;28;8869;-72
2023/10/12 00:05:46;;;;;;;;;9.20;6.40;;;;;14.09;41.89;99899.69;5059748;27;8976;-70
2023/10/12 00:08:29;;;;;;;;;7.00;7.00;;;;;14.02;42.00;99900.81;5111360;28;8861;-71
2023/10/12 00:11:06;;;;;;;;;6.00;6.00;;;;;14.08;41.75;99897.97;5111235;27;9045;-68
2023/10/12 00:13:41;;;;;;;;;5.80;5.80;;;;;14.09;41.77;99891.75;5111118;28;8841;-69
2023/10/12 00:16:10;;;;;;;;;8.00;8.00;;;;;14.08;41.82;99892.69;5093241;28;9006;-72
2023/10/12 00:18:39;;;;;;;;;9.60;7.40;;;;;14.09;41.77;99892.63;5091671;28;8857;-69
2023/10/12 00:21:14;;;;;;;;;6.00;6.00;;;;;14.13;41.81;99884.59;5110639;27;8845;-70
2023/10/12 00:23:46;;;;;;;;;8.40;8.40;;;;;14.09;41.75;99884.72;5097099;27;8843;-71
2023/10/12 00:26:17;;;;;;;;;7.40;7.40;;;;;14.13;41.71;99887.25;5131635;27;8846;-71
2023/10/12 00:28:51;;;;;;;;;8.40;7.60;;;;;14.10;41.66;99882.91;5130129;27;10145;-71
2023/10/12 00:31:20;;;;;;;;;8.00;8.00;;;;;14.01;41.86;99883.19;5126436;27;8849;-71
2023/10/12 00:33:49;;;;;;;;;8.20;8.20;;;;;14.02;41.99;99877.88;5119409;27;9411;-69
2023/10/12 00:36:24;;;;;;;;;8.00;7.00;;;;;14.01;42.00;99876.13;5108584;27;8833;-70
2023/10/12 00:38:53;;;;;;;;;9.40;8.60;;;;;13.98;41.97;99870.94;5122763;27;8983;-71
2023/10/12 00:41:25;;;;;;;;;8.40;8.20;;;;;14.03;42.06;99870.78;5109497;28;8868;-69
2023/10/12 00:44:02;;;;;;;;;8.60;7.80;;;;;14.05;41.89;99863.69;5109125;28;8875;-72
2023/10/12 00:46:40;;;;;;;;;7.00;7.00;;;;;13.96;42.09;99862.19;5110624;28;9449;-69
2023/10/12 00:49:17;;;;;;;;;5.20;5.20;;;;;13.98;41.90;99862.13;5089914;27;8851;-70
2023/10/12 00:51:52;;;;;;;;;9.80;9.20;;;;;13.96;42.25;99858.66;5086111;28;8846;-72
2023/10/12 00:54:40;;;;;;;;;6.80;6.60;;;;;13.81;42.05;99854.69;5050956;28;8848;-73
2023/10/12 00:57:11;;;;;;;;;7.00;7.00;;;;;13.92;42.23;99846.47;5066906;28;8844;-71
2023/10/12 00:59:43;;;;;;;;;8.60;8.60;;;;;13.89;42.40;99844.78;5033804;28;8844;-71
2023/10/12 01:02:15;;;;;;;;;6.80;6.60;;;;;13.90;42.14;99846.50;5066688;28;8974;-71
2023/10/12 01:04:48;;;;;;;;;9.20;9.20;;;;;13.83;42.37;99845.84;5086932;28;8900;-69
2023/10/12 01:07:25;;;;;;;;;7.00;7.00;;;;;13.76;42.29;99840.75;5085764;28;9741;-70
2023/10/12 01:10:03;;;;;;;;;7.00;7.00;;;;;13.68;42.50;99841.84;5087193;28;8869;-73
2023/10/12 01:12:34;;;;;;;;;7.60;7.00;;;;;13.70;42.87;99834.72;5069807;28;8838;-69
2023/10/12 01:15:08;;;;;;;;;10.40;8.40;;;;;13.74;42.42;99834.66;5063372;28;9522;-72
2023/10/12 01:17:39;;;;;;;;;4.20;4.00;;;;;13.76;42.24;99832.81;5086931;28;8842;-71
2023/10/12 01:20:15;;;;;;;;;7.40;7.40;;;;;13.73;42.42;99830.25;5066749;28;9570;-72
2023/10/12 01:22:47;;;;;;;;;6.00;6.00;;;;;13.74;42.41;99832.00;5087044;27;8928;-70
2023/10/12 01:25:21;;;;;;;;;5.80;5.80;;;;;13.74;42.23;99817.00;5109835;28;8849;-67
2023/10/12 01:27:52;;;;;;;;;9.60;7.60;;;;;13.67;42.29;99824.22;5091648;28;8869;-69
2023/10/12 01:30:22;;;;;;;;;7.80;6.00;;;;;13.65;42.36;99817.28;5110269;27;8953;-70
2023/10/12 01:32:55;;;;;;;;;6.60;6.60;;;;;13.64;42.02;99808.50;5108446;28;9029;-70
2023/10/12 01:35:33;;;;;;;;;9.00;8.40;;;;;13.65;42.16;99812.00;5125463;27;8869;-70
2023/10/12 01:38:05;;;;;;;;;6.20;5.80;;;;;13.61;42.16;99805.94;5089921;28;8895;-71
2023/10/12 01:40:44;;;;;;;;;7.00;6.00;;;;;13.59;42.35;99813.03;5115832;27;8819;-71
2023/10/12 01:43:15;;;;;;;;;3.80;3.80;;;;;13.53;42.39;99813.22;5128920;27;9016;-69
2023/10/12 01:45:45;;;;;;;;;6.40;6.00;;;;;13.56;42.20;99805.19;5110398;27;8876;-72
2023/10/12 01:48:16;;;;;;;;;7.20;6.00;;;;;13.51;42.59;99802.69;5110935;27;8859;-71
2023/10/12 01:50:47;;;;;;;;;7.00;6.20;;;;;13.53;42.47;99804.44;5129710;27;8942;-70
2023/10/12 01:53:26;;;;;;;;;9.80;8.40;;;;;13.55;42.06;99805.25;5130082;27;9662;-71
2023/10/12 01:55:55;;;;;;;;;8.60;8.60;;;;;13.53;42.61;99807.94;5129863;27;8847;-69
2023/10/12 01:58:27;;;;;;;;;8.00;7.20;;;;;13.53;42.32;99809.72;5106475;28;9597;-72
2023/10/12 02:01:05;;;;;;;;;7.60;7.60;;;;;13.60;42.43;99805.97;5088016;28;9636;-68
2023/10/12 02:03:42;;;;;;;;;6.00;6.00;;;;;13.61;42.39;99807.72;5089667;28;8836;-71
2023/10/12 02:06:16;;;;;;;;;7.60;7.60;;;;;13.60;42.41;99805.97;5089529;28;8840;-69
2023/10/12 02:08:49;;;;;;;;;7.80;6.40;;;;;13.67;42.19;99808.38;5072796;28;8851;-70
2023/10/12 02:11:36;;;;;;;;;6.60;6.60;;;;;13.67;42.39;99807.53;5086420;28;8852;-70
2023/10/12 02:14:05;;;;;;;;;2.00;2.00;;;;;13.73;42.31;99804.69;5052279;28;8882;-71
2023/10/12 02:16:37;;;;;;;;;7.40;7.40;;;;;13.74;42.23;99814.38;5087868;28;8962;-72
2023/10/12 02:19:08;;;;;;;;;9.40;8.20;;;;;13.74;42.22;99814.38;5069009;28;8864;-71
2023/10/12 02:21:40;;;;;;;;;7.00;7.00;;;;;13.79;42.05;99808.94;5065175;28;9008;-69
2023/10/12 02:24:13;;;;;;;;;6.40;6.40;;;;;13.87;42.05;99821.03;5064724;28;8880;-69
2023/10/12 02:26:52;;;;;;;;;7.40;6.80;;;;;13.89;41.87;99813.09;5048815;28;8886;-69
2023/10/12 02:29:21;;;;;;;;;6.00;6.00;;;;;13.86;42.05;99810.50;5064692;28;8856;-70
2023/10/12 02:32:06;;;;;;;;;8.80;8.80;;;;;13.88;42.00;99812.22;5100233;28;8833;-70
2023/10/12 02:34:41;;;;;;;;;9.40;8.40;;;;;13.98;41.76;99810.16;5085498;28;8869;-72
2023/10/12 02:37:20;;;;;;;;;6.80;6.60;;;;;13.97;42.04;99800.47;5069070;28;8854;-68
2023/10/12 02:39:53;;;;;;;;;6.20;5.40;;;;;13.97;42.13;99797.84;5085637;28;8850;-68
2023/10/12 02:42:38;;;;;;;;;7.60;7.60;;;;;14.00;42.11;99800.41;5085779;28;8881;-69
2023/10/12 02:45:17;;;;;;;;;8.00;8.00;;;;;14.00;41.97;99792.47;5102920;28;9652;-69
2023/10/12 02:47:49;;;;;;;;;8.00;8.00;;;;;13.97;42.13;99783.78;5087961;28;8982;-71
2023/10/12 02:50:27;;;;;;;;;8.60;8.60;;;;;13.91;42.44;99781.31;5088838;28;8856;-70
2023/10/12 02:52:56;;;;;;;;;8.20;7.80;;;;;13.85;42.41;99771.81;5105833;28;8859;-69
2023/10/12 02:55:34;;;;;;;;;9.40;6.60;;;;;13.88;42.45;99769.94;5105918;28;8852;-70
2023/10/12 02:58:17;;;;;;;;;7.00;6.60;;;;;13.83;42.76;99771.00;5085198;28;9688;-69
2023/10/12 03:00:54;;;;;;;;;9.60;8.60;;;;;13.79;42.71;99777.22;5077052;28;8953;-71
2023/10/12 03:03:38;;;;;;;;;9.20;9.20;;;;;13.76;43.05;99769.41;5108597;28;8855;-70
2023/10/12 03:06:09;;;;;;;;;9.00;8.80;;;;;13.81;42.93;99778.06;5105495;28;8829;-69
2023/10/12 03:09:02;;;;;;;;;7.80;7.80;;;;;13.74;43.36;99769.44;5055288;28;8931;-71
2023/10/12 03:11:32;;;;;;;;;9.40;7.20;;;;;13.79;43.17;99764.91;5097181;28;8855;-68
2023/10/12 03:14:13;;;;;;;;;9.00;8.60;;;;;13.73;43.19;99775.63;5085140;28;8980;-71
2023/10/12 03:16:43;;;;;;;;;6.20;6.20;;;;;13.77;43.11;99773.78;5085318;27;8832;-71
2023/10/12 03:19:23;;;;;;;;;8.20;6.80;;;;;13.82;43.11;99771.91;5085209;28;8871;-69
2023/10/12 03:22:03;;;;;;;;;7.00;6.60;;;;;13.74;43.48;99781.81;5085114;28;8978;-70
2023/10/12 03:24:43;;;;;;;;;8.80;8.80;;;;;13.82;43.19;99774.53;5018615;28;8876;-71
2023/10/12 03:27:17;;;;;;;;;6.80;6.80;;;;;13.86;43.15;99777.03;5038743;28;8945;-71
2023/10/12 03:29:51;;;;;;;;;7.60;6.80;;;;;13.97;42.89;99779.34;5068439;28;8847;-69
2023/10/12 03:32:23;;;;;;;;;7.40;6.60;;;;;13.98;42.95;99781.09;5085848;28;8883;-70
2023/10/12 03:34:56;;;;;;;;;8.20;8.20;;;;;14.02;42.92;99773.94;5070499;28;8846;-71
2023/10/12 03:42:54;;;;;;;;;23.80;22.80;;;;;14.11;42.79;99778.94;5110346;28;8842;-70
2023/10/12 03:45:27;;;;;;;;;18.00;17.80;;;;;14.13;42.87;99769.16;5111986;28;9630;-69
2023/10/12 03:48:13;;;;;;;;;13.00;11.60;;;;;14.20;42.88;99762.75;5110186;27;8861;-70
2023/10/12 03:50:58;;;;;;;;;7.40;7.00;;;;;14.23;42.79;99767.09;5110227;28;9486;-72
2023/10/12 03:53:31;;;;;;;;;10.60;10.20;;;;;14.18;42.95;99767.22;5111539;28;8852;-68
2023/10/12 03:56:01;;;;;;;;;9.80;8.60;;;;;14.23;42.93;99773.22;5127401;27;9617;-73
2023/10/12 03:58:38;;;;;;;;;8.40;8.40;;;;;14.30;42.69;99771.25;5097954;27;8842;-69
2023/10/12 04:01:10;;;;;;;;;10.80;10.40;;;;;14.29;42.77;99774.81;5132078;27;8842;-70
2023/10/12 04:03:40;;;;;;;;;11.00;11.00;;;;;14.27;42.70;99780.13;5128660;27;8823;-70
2023/10/12 04:06:23;;;;;;;;;9.40;9.40;;;;;14.38;42.58;99782.44;5131341;27;8843;-70
2023/10/12 04:08:53;;;;;;;;;10.80;10.20;;;;;14.30;42.67;99781.84;5131699;27;8930;-70
2023/10/12 04:14:43;;;;;;;;;10.60;10.60;;;;;14.31;42.58;99772.97;5067569;28;8850;-70
2023/10/12 04:17:22;;;;;;;;;10.00;10.00;;;;;14.29;42.78;99766.88;5067777;28;8841;-72
2023/10/12 04:20:12;;;;;;;;;25.60;22.20;;;;;14.01;42.98;99773.03;5065205;28;9520;-73
2023/10/12 04:25:35;;;;;;;;;12.00;9.80;;;;;14.02;43.22;99774.78;5067532;28;8845;-71
2023/10/12 04:28:17;;;;;;;;;9.20;8.40;;;;;13.96;43.57;99774.97;5067662;28;8984;-71
2023/10/12 04:33:43;;;;;;;;;10.80;10.80;;;;;14.01;43.55;99767.75;5067614;28;8837;-70
2023/10/12 04:36:23;;;;;;;;;9.60;9.20;;;;;14.03;43.59;99765.91;5063472;28;8831;-71
2023/10/12 04:39:02;;;;;;;;;10.80;9.80;;;;;14.02;43.66;99766.84;5049717;28;8849;-70
2023/10/12 04:41:42;;;;;;;;;20.60;16.80;;;;;13.98;43.92;99773.16;5067094;28;8922;-71
2023/10/12 04:47:04;;;;;;;;;15.00;13.40;;;;;13.96;43.94;99768.81;5065939;28;8841;-71
2023/10/12 04:52:36;;;;;;;;;10.20;9.20;;;;;13.86;44.07;99765.59;5123552;27;8842;-71
2023/10/12 04:55:20;;;;;;;;;8.20;8.00;;;;;13.84;44.22;99770.91;5130552;27;9638;-73
2023/10/12 05:00:48;;;;;;;;;11.00;9.60;;;;;13.89;43.96;99773.44;5125003;27;9044;-73
2023/10/12 05:03:34;;;;;;;;;12.20;12.00;;;;;13.95;43.83;99781.16;5115263;27;8864;-70
2023/10/12 05:06:08;;;;;;;;;10.40;9.60;;;;;13.88;44.14;99774.34;5120129;27;8830;-70
2023/10/12 05:08:40;;;;;;;;;11.00;10.00;;;;;13.85;44.21;99777.09;5107595;28;8841;-68
2023/10/12 05:11:09;;;;;;;;;11.00;10.00;;;;;13.87;44.35;99775.28;5110005;28;8861;-69
2023/10/12 05:13:43;;;;;;;;;8.20;7.00;;;;;13.93;44.08;99776.84;5110162;28;8890;-71
2023/10/12 05:16:15;;;;;;;;;7.60;6.40;;;;;14.02;43.97;99782.72;5109644;28;8929;-68
2023/10/12 05:18:47;;;;;;;;;7.20;7.20;;;;;14.04;44.06;99778.25;5115360;27;8830;-69
2023/10/12 05:21:17;;;;;;;;;8.80;8.80;;;;;14.05;43.92;99787.03;5129005;27;8867;-70
2023/10/12 05:23:46;;;;;;;;;8.80;8.40;;;;;14.02;44.00;99784.50;5130016;27;8884;-69
2023/10/12 05:26:14;;;;;;;;;8.60;7.20;;;;;14.04;43.92;99785.31;5130057;27;8846;-69
2023/10/12 05:28:58;;;;;;;;;11.80;10.00;;;;;13.95;44.08;99781.16;5109952;27;8877;-71
2023/10/12 05:31:39;;;;;;;;;9.00;9.00;;;;;13.95;44.19;99782.97;5108753;28;8976;-70
2023/10/12 05:34:32;;;;;;;;;11.20;10.40;;;;;13.94;44.33;99778.56;5113918;27;8841;-69
2023/10/12 05:37:07;;;;;;;;;7.40;7.00;;;;;14.05;44.14;99785.28;5117276;27;8894;-69
2023/10/12 05:39:46;;;;;;;;;9.80;9.80;;;;;14.10;43.99;99782.47;5108061;27;8849;-71
2023/10/12 05:42:15;;;;;;;;;8.60;7.80;;;;;14.13;43.86;99784.13;5114428;27;8941;-71
2023/10/12 05:44:44;;;;;;;;;10.00;8.80;;;;;14.20;43.79;99783.03;5114538;27;8827;-70
2023/10/12 05:47:13;;;;;;;;;10.40;10.20;;;;;14.18;43.57;99776.94;5117517;27;8926;-69
2023/10/12 05:49:45;;;;;;;;;10.00;9.00;;;;;14.20;43.58;99783.88;5117977;27;8853;-70
2023/10/12 05:52:13;;;;;;;;;10.40;9.00;;;;;14.31;43.38;99780.91;5114458;27;8972;-69
2023/10/12 05:54:42;;;;;;;;;10.40;9.80;;;;;14.32;43.32;99787.94;5115478;27;8864;-72
2023/10/12 05:57:19;;;;;;;;;10.20;10.20;;;;;14.36;43.44;99794.00;5115687;27;8943;-69
2023/10/12 05:59:49;;;;;;;;;11.40;11.00;;;;;14.43;43.31;99793.75;5108866;28;8971;-70
2023/10/12 06:02:18;;;;;;;;;6.20;6.20;;;;;14.56;43.13;99795.97;5085185;28;8845;-72
2023/10/12 06:04:49;;;;;;;;;11.00;9.60;;;;;14.64;43.01;99801.84;5118907;27;8869;-68
2023/10/12 06:07:17;;;;;;;;;10.20;10.20;;;;;14.70;42.78;99801.66;5080497;27;9572;-71
2023/10/12 06:09:52;;;;;;;;;10.60;10.60;;;;;14.79;42.59;99801.41;5114175;27;8862;-70
2023/10/12 06:12:24;;;;;;;;;12.80;12.00;;;;;14.89;42.45;99798.44;5114309;27;8845;-68
2023/10/12 06:14:57;;;;;;;;;8.40;8.40;;;;;14.83;42.65;99804.81;5117079;27;8854;-72
2023/10/12 06:17:30;;;;;;;;;12.20;10.20;;;;;14.96;42.33;99798.16;5073134;28;8970;-68
2023/10/12 06:20:10;;;;;;;;;10.80;9.40;;;;;15.02;42.37;99805.03;5075729;28;8874;-70
2023/10/12 06:22:39;;;;;;;;;10.60;9.80;;;;;15.06;42.25;99802.19;5081710;28;9011;-70
2023/10/12 06:25:17;;;;;;;;;9.60;9.60;;;;;15.21;41.99;99795.50;5077931;28;8854;-71
2023/10/12 06:27:49;;;;;;;;;10.00;10.00;;;;;15.28;41.89;99798.78;5067845;28;8858;-72
2023/10/12 06:30:18;;;;;;;;;10.40;10.40;;;;;15.35;41.85;99799.41;5065207;28;8840;-68
2023/10/12 06:32:48;;;;;;;;;5.40;5.40;;;;;15.37;41.76;99800.22;5065203;28;8871;-72
2023/10/12 06:35:25;;;;;;;;;9.20;9.20;;;;;15.47;41.72;99801.59;5065480;28;8909;-69
2023/10/12 06:41:00;;;;;;;;;11.80;9.40;;;;;15.68;41.28;99805.28;5025029;28;8872;-70
2023/10/12 06:46:18;;;;;;;;;11.00;11.00;;;;;15.86;40.99;99816.09;5014356;28;8874;-71
2023/10/12 06:48:47;;;;;;;;;13.00;13.00;;;;;16.06;40.80;99823.25;5040867;28;8921;-70
2023/10/12 06:51:18;;;;;;;;;8.80;7.60;;;;;16.11;40.73;99818.66;5025393;28;9022;-70
2023/10/12 06:53:53;;;;;;;;;7.60;7.40;;;;;16.23;40.41;99828.78;5025475;28;8876;-72
2023/10/12 06:56:25;;;;;;;;;11.20;10.40;;;;;16.42;40.23;99827.09;5084840;28;8975;-71
2023/10/12 07:04:38;;;;;;;;;11.60;10.40;;;;;16.65;40.23;99828.00;5085222;28;8928;-71
2023/10/12 07:07:15;;;;;;;;;11.00;9.80;;;;;16.73;39.96;99817.91;5085200;28;8934;-70
2023/10/12 07:09:44;;;;;;;;;13.00;13.00;;;;;16.70;40.19;99814.50;5038579;28;9529;-70
2023/10/12 07:12:17;;;;;;;;;14.20;13.00;;;;;16.79;40.40;99814.97;5089437;28;8847;-73
2023/10/12 07:14:47;;;;;;;;;13.80;13.60;;;;;16.89;39.75;99818.13;5067065;28;8872;-71
2023/10/12 07:17:17;;;;;;;;;13.60;13.60;;;;;17.09;39.74;99816.41;5112295;28;8853;-70
2023/10/12 07:19:49;;;;;;;;;10.60;9.60;;;;;17.23;39.97;99811.34;5111514;28;8849;-69
2023/10/12 07:22:20;;;;;;;;;11.40;11.40;;;;;17.39;39.39;99807.09;5083653;28;8833;-74
2023/10/12 07:24:53;;;;;;;;;12.20;12.20;;;;;17.50;39.24;99809.25;5110202;28;8983;-69
2023/10/12 07:27:24;;;;;;;;;11.80;10.40;;;;;17.62;38.95;99799.84;5076526;28;8837;-69
2023/10/12 07:30:09;;;;;;;;;9.20;9.20;;;;;17.77;38.78;99798.28;5111857;28;8848;-70
2023/10/12 07:32:38;;;;;;;;;11.40;10.60;;;;;17.96;38.79;99801.78;5111885;27;8867;-71
2023/10/12 07:35:17;;;;;;;;;12.60;12.20;;;;;18.03;38.57;99802.41;5111704;28;8857;-68
2023/10/12 07:37:48;;;;;;;;;10.60;10.20;;;;;18.04;38.39;99798.78;5110495;28;8868;-71
2023/10/12 07:40:19;;;;;;;;;11.80;11.80;;;;;18.23;38.19;99805.91;5092536;28;8907;-70
2023/10/12 07:42:48;;;;;;;;;11.40;10.20;;;;;18.39;37.97;99798.91;5111680;28;8864;-72
2023/10/12 07:45:18;;;;;;;;;16.40;12.80;;;;;18.59;37.77;99800.56;5111717;28;8913;-69
2023/10/12 07:47:58;;;;;;;;;10.20;10.20;;;;;18.65;37.84;99792.28;5111733;28;8984;-68
2023/10/12 07:50:30;;;;;;;;;11.60;11.60;;;;;18.66;37.81;99796.63;5079461;28;8934;-70
2023/10/12 07:53:15;;;;;;;;;11.40;10.40;;;;;18.80;37.39;99796.00;5076451;27;8863;-71
2023/10/12 07:55:43;;;;;;;;;14.00;11.80;;;;;18.92;37.22;99805.13;5111456;28;8884;-73
2023/10/12 07:58:14;;;;;;;;;10.40;10.40;;;;;18.92;37.35;99802.47;5074685;28;8930;-70
2023/10/12 08:00:51;;;;;;;;;11.60;11.60;;;;;19.10;37.50;99812.19;5110938;28;9025;-73
2023/10/12 08:03:25;;;;;;;;;10.40;10.40;;;;;19.17;37.29;99810.03;5130044;27;8855;-76
2023/10/12 08:08:41;;;;;;;;;13.40;12.80;;;;;19.45;37.44;99816.59;5131735;27;8850;-76
2023/10/12 08:11:28;;;;;;;;;11.40;10.80;;;;;19.56;37.04;99816.91;5131824;27;8988;-73
2023/10/12 08:14:09;;;;;;;;;11.20;10.60;;;;;19.57;37.12;99812.41;5129961;27;8831;-77
2023/10/12 08:16:40;;;;;;;;;12.00;10.20;;;;;19.63;36.84;99804.06;5109903;28;8837;-74
2023/10/12 08:21:59;;;;;;;;;11.00;11.00;;;;;19.62;36.60;99795.22;5107307;28;8878;-73
2023/10/12 08:24:35;;;;;;;;;11.40;10.60;;;;;19.72;37.03;99792.91;5070967;28;8939;-74
2023/10/12 08:27:06;;;;;;;;;11.40;10.60;;;;;19.76;36.97;99790.94;5064188;28;8928;-75
2023/10/12 08:32:33;;;;;;;;;13.00;12.00;;;;;19.92;37.13;99788.28;5087516;28;8982;-75
2023/10/12 08:35:11;;;;;;;;;11.40;11.40;;;;;19.99;36.67;99789.66;5091764;28;8933;-77
2023/10/12 08:40:29;;;;;;;;;14.40;12.20;;;;;20.16;36.61;99786.03;5089022;28;8845;-77
2023/10/12 08:43:06;;;;;;;;;15.20;14.60;;;;;20.17;36.93;99788.59;5087212;28;8907;-77
2023/10/12 08:45:37;;;;;;;;;15.40;15.00;;;;;20.24;36.80;99787.34;5087423;28;9619;-77
2023/10/12 08:48:09;;;;;;;;;14.00;12.40;;;;;20.28;37.04;99791.56;5087129;28;8972;-76
2023/10/12 08:50:58;;;;;;;;;15.40;12.60;;;;;20.41;36.78;99794.38;5087145;28;8916;-77
2023/10/12 08:53:31;;;;;;;;;11.40;10.20;;;;;20.46;36.61;99799.44;5086977;28;8942;-77
2023/10/12 08:56:08;;;;;;;;;13.00;12.60;;;;;20.57;36.52;99799.69;5087741;28;8935;-74
2023/10/12 08:58:44;;;;;;;;;14.60;14.60;;;;;20.67;36.78;99787.50;5095435;27;8835;-72
2023/10/12 09:01:22;;;;;;;;;10.60;10.00;;;;;20.68;36.29;99799.06;5119367;27;8910;-72
2023/10/12 09:04:00;;;;;;;;;12.00;11.80;;;;;20.74;36.93;99793.34;5100740;27;9006;-73
2023/10/12 09:06:53;;;;;;;;;13.80;13.80;;;;;20.83;36.52;99794.63;5115973;27;8853;-74
2023/10/12 09:12:12;;;;;;;;;17.60;14.60;;;;;20.99;35.96;99800.78;5113757;27;8869;-73
2023/10/12 09:14:43;;;;;;;;;13.40;12.60;;;;;21.04;35.53;99800.50;5130657;27;9742;-73
2023/10/12 09:17:27;;;;;;;;;12.80;12.80;;;;;21.24;35.92;99786.78;5115756;27;8807;-73
2023/10/12 09:20:21;;;;;;;;;13.00;12.80;;;;;21.15;35.68;99790.00;5093724;27;8878;-73
2023/10/12 09:22:56;;;;;;;;;13.00;11.40;;;;;21.24;35.56;99786.78;5130077;27;8873;-73
2023/10/12 09:25:59;;;;;;;;;10.60;9.40;;;;;21.31;35.97;99781.91;5115635;27;8846;-73
2023/10/12 09:29:03;;;;;;;;;11.00;10.60;;;;;21.38;35.56;99782.38;5115518;27;8872;-75
2023/10/12 09:31:49;;;;;;;;;11.40;10.60;;;;;21.43;35.23;99783.81;5119681;27;8849;-74
2023/10/12 09:37:05;;;;;;;;;13.20;12.80;;;;;21.54;36.15;99774.25;5069229;28;9004;-72
2023/10/12 09:39:35;;;;;;;;;13.80;11.60;;;;;21.64;35.61;99773.63;5085775;28;8938;-72
2023/10/12 09:42:13;;;;;;;;;12.40;11.80;;;;;21.64;35.20;99775.44;5036793;28;8878;-74
2023/10/12 09:44:45;;;;;;;;;11.00;11.00;;;;;21.72;35.21;99777.63;5101060;28;8835;-72
2023/10/12 09:47:16;;;;;;;;;11.60;11.40;;;;;21.78;35.26;99769.19;5098105;28;8952;-72
2023/10/12 09:49:54;;;;;;;;;13.00;11.80;;;;;21.88;35.13;99770.34;5085927;28;8866;-74
2023/10/12 09:52:25;;;;;;;;;12.40;12.20;;;;;21.93;35.02;99765.53;5047408;28;8930;-72
2023/10/12 09:55:07;;;;;;;;;14.00;12.40;;;;;22.02;35.33;99766.75;5091253;28;8826;-71
2023/10/12 09:57:36;;;;;;;;;14.60;14.40;;;;;22.07;33.68;99763.75;5077967;28;8857;-72
2023/10/12 10:00:18;;;;;;;;;10.40;10.40;;;;;22.23;34.20;99759.97;5090398;28;8926;-73
2023/10/12 10:02:49;;;;;;;;;13.00;13.00;;;;;22.22;35.24;99763.63;5085219;28;8849;-76
2023/10/12 10:05:39;;;;;;;;;13.40;11.80;;;;;22.38;34.43;99759.94;5085678;28;8945;-73
2023/10/12 10:08:08;;;;;;;;;13.60;13.60;;;;;22.46;34.10;99752.25;5086128;28;8842;-72
2023/10/12 10:10:38;;;;;;;;;12.80;12.80;;;;;22.55;34.05;99753.47;5085532;28;8853;-73
2023/10/12 10:13:10;;;;;;;;;13.00;12.00;;;;;22.55;34.07;99746.28;5085612;28;8901;-73
2023/10/12 10:15:55;;;;;;;;;12.00;12.00;;;;;22.76;33.74;99743.94;5107322;28;8951;-69
2023/10/12 10:18:25;;;;;;;;;12.80;12.00;;;;;22.73;34.27;99736.13;5121265;27;8839;-75
2023/10/12 10:20:58;;;;;;;;;10.40;10.40;;;;;22.81;34.00;99732.91;5110450;27;8865;-78
2023/10/12 10:23:26;;;;;;;;;10.20;10.20;;;;;22.91;34.03;99734.00;5109096;28;8837;-74
2023/10/12 10:26:19;;;;;;;;;5.40;5.40;;;;;22.98;33.61;99721.06;5086528;27;8852;-77
2023/10/12 10:28:55;;;;;;;;;12.60;11.40;;;;;23.11;33.50;99719.22;5108726;28;8949;-80
2023/10/12 10:31:32;;;;;;;;;13.80;12.80;;;;;23.27;33.57;99724.34;5089937;28;9644;-76
2023/10/12 10:34:05;;;;;;;;;14.20;14.20;;;;;23.29;33.08;99713.50;5083340;28;8841;-77
2023/10/12 10:36:35;;;;;;;;;12.80;11.80;;;;;23.32;32.83;99710.63;5108588;28;8845;-77
2023/10/12 10:39:24;;;;;;;;;12.80;12.80;;;;;23.39;32.53;99717.22;5108649;28;8876;-74
2023/10/12 10:41:56;;;;;;;;;10.80;9.80;;;;;23.52;33.15;99706.50;5108475;28;9555;-75
2023/10/12 10:44:27;;;;;;;;;12.60;11.40;;;;;23.66;31.99;99703.69;5108077;28;8863;-77
2023/10/12 10:47:00;;;;;;;;;13.00;12.80;;;;;23.75;32.19;99700.31;5090972;28;8841;-77
2023/10/12 10:49:31;;;;;;;;;13.00;12.00;;;;;23.88;32.15;99699.41;5109211;28;8857;-77
2023/10/12 10:52:15;;;;;;;;;12.00;10.80;;;;;23.98;31.63;99697.75;5090167;28;8837;-74
2023/10/12 10:54:56;;;;;;;;;12.60;12.60;;;;;24.03;30.75;99692.03;5109283;28;8978;-76
2023/10/12 10:57:31;;;;;;;;;13.80;13.20;;;;;24.22;31.30;99691.53;5108796;28;8849;-72
2023/10/12 11:00:00;;;;;;;;;17.80;17.40;;;;;24.35;30.82;99685.09;5108154;28;8845;-77
2023/10/12 11:02:35;;;;;;;;;12.20;12.20;;;;;24.29;30.66;99685.56;5100247;27;8843;-78
2023/10/12 11:05:10;;;;;;;;;15.00;13.60;;;;;24.37;30.26;99687.66;5128559;27;8846;-73
2023/10/12 11:07:39;;;;;;;;;14.80;13.60;;;;;24.55;29.62;99686.25;5145030;27;8850;-74
2023/10/12 11:10:19;;;;;;;;;15.40;12.60;;;;;24.79;30.19;99684.50;5128853;27;8881;-73
2023/10/12 11:12:48;;;;;;;;;16.00;15.00;;;;;24.92;29.73;99690.59;5107540;28;8857;-77
2023/10/12 11:15:20;;;;;;;;;14.80;14.60;;;;;25.12;29.55;99675.59;5111427;27;8861;-77
2023/10/12 11:17:59;;;;;;;;;12.00;12.00;;;;;25.28;28.72;99673.38;5129277;27;8851;-72
2023/10/12 11:20:38;;;;;;;;;11.00;10.00;;;;;25.31;28.11;99667.75;5092325;27;8900;-74
2023/10/12 11:23:08;;;;;;;;;15.60;14.60;;;;;25.29;28.35;99661.63;5093111;27;8838;-79
2023/10/12 11:25:41;;;;;;;;;13.00;11.80;;;;;25.49;27.91;99662.75;5093565;27;8846;-76
2023/10/12 11:28:19;;;;;;;;;13.60;12.00;;;;;25.71;28.18;99655.56;5127705;27;8839;-79
2023/10/12 11:30:51;;;;;;;;;12.00;10.60;;;;;25.79;27.68;99660.31;5108122;28;8856;-74
2023/10/12 11:33:28;;;;;;;;;12.00;12.00;;;;;26.02;27.28;99653.03;5108583;28;8873;-76
2023/10/12 11:36:03;;;;;;;;;11.00;11.00;;;;;25.78;27.26;99653.25;5106794;28;9662;-75
2023/10/12 11:38:32;;;;;;;;;12.00;12.00;;;;;26.05;27.66;99650.94;5108445;28;8857;-75
2023/10/12 11:41:13;;;;;;;;;12.00;11.60;;;;;26.35;27.80;99646.63;5089258;28;8865;-75
2023/10/12 11:43:49;;;;;;;;;10.60;10.60;;;;;26.51;26.92;99639.94;5107058;28;8989;-80
2023/10/12 11:46:18;;;;;;;;;10.20;10.20;;;;;26.60;26.93;99637.28;5090007;28;9003;-79
2023/10/12 11:49:04;;;;;;;;;9.80;9.20;;;;;26.91;26.67;99629.22;5108400;28;8841;-78
2023/10/12 11:51:39;;;;;;;;;13.00;13.00;;;;;26.93;26.60;99629.94;5108115;28;8852;-78
2023/10/12 11:54:19;;;;;;;;;12.00;11.20;;;;;26.92;26.05;99617.44;5108479;28;8959;-72
2023/10/12 11:56:51;;;;;;;;;21.60;20.60;;;;;26.95;25.33;99627.09;5076081;28;8856;-80
2023/10/12 11:59:25;;;;;;;;;13.80;11.40;;;;;26.92;25.56;99616.59;5113940;27;8856;-77
2023/10/12 12:01:57;;;;;;;;;13.20;13.20;;;;;26.83;25.97;99615.53;5121428;27;8971;-76
2023/10/12 12:04:32;;;;;;;;;10.00;10.00;;;;;26.53;25.53;99605.63;5125778;27;8866;-75
2023/10/12 12:07:02;;;;;;;;;7.60;7.60;;;;;25.86;26.16;99608.50;5121074;27;8885;-76
2023/10/12 12:09:32;;;;;;;;;10.20;9.80;;;;;25.49;26.47;99613.41;5114241;27;8861;-75
2023/10/12 12:12:01;;;;;;;;;8.20;8.20;;;;;25.60;26.24;99612.53;5090645;28;8876;-74
2023/10/12 12:14:30;;;;;;;;;7.60;7.40;;;;;25.80;26.26;99602.81;5110741;27;8837;-75
2023/10/12 12:17:01;;;;;;;;;10.00;9.20;;;;;25.85;26.38;99600.56;5124706;27;8839;-75
2023/10/12 12:19:33;;;;;;;;;15.60;10.20;;;;;25.78;27.14;99602.94;5115235;27;8819;-74
2023/10/12 12:22:02;;;;;;;;;14.80;14.80;;;;;25.59;27.12;99598.22;5119170;27;8987;-75
2023/10/12 12:24:31;;;;;;;;;15.40;14.20;;;;;25.74;27.36;99598.78;5111219;28;8849;-76
2023/10/12 12:26:59;;;;;;;;;14.20;14.00;;;;;25.75;27.24;99591.56;5110807;28;8857;-79
2023/10/12 12:29:28;;;;;;;;;14.40;13.00;;;;;25.81;27.48;99596.41;5110664;28;8901;-79
2023/10/12 12:32:18;;;;;;;;;15.80;13.60;;;;;25.84;27.01;99590.78;5117570;27;8854;-79
2023/10/12 12:34:51;;;;;;;;;13.80;13.80;;;;;25.80;27.18;99589.34;5117963;27;8857;-77
2023/10/12 12:37:22;;;;;;;;;14.00;12.60;;;;;25.73;26.91;99591.69;5117443;27;8895;-81
2023/10/12 12:40:13;;;;;;;;;7.40;7.40;;;;;25.57;27.00;99586.75;5119377;27;8853;-81
2023/10/12 12:42:44;;;;;;;;;8.40;8.40;;;;;25.17;27.58;99587.31;5120449;27;8838;-79
2023/10/12 12:45:15;;;;;;;;;8.80;8.80;;;;;25.29;27.45;99583.59;5130710;27;8868;-79
2023/10/12 12:47:44;;;;;;;;;11.00;10.40;;;;;25.32;28.48;99585.19;5108396;28;8999;-74
2023/10/12 12:50:14;;;;;;;;;15.60;15.00;;;;;25.36;27.82;99577.75;5125238;27;8857;-72
2023/10/12 12:52:46;;;;;;;;;12.80;12.80;;;;;25.39;27.47;99582.88;5110225;28;8853;-75
2023/10/12 12:55:18;;;;;;;;;18.60;18.00;;;;;25.35;28.08;99587.66;5119342;27;9669;-82
2023/10/12 12:57:47;;;;;;;;;16.80;15.80;;;;;25.27;28.76;99574.81;5075757;27;8849;-80